Time;durP1;ratioP1;P1;durP2;ratioP2;P2;SDS_P1;SDS_P2;PMS_P1;PMS_P2;Temp;Humidity;BMP_temperature;BMP_pressure;BME280_temperature;BME280_humidity;BME280_pressure;Samples;Min_cycle;Max_cycle;Signal;HPM_P1;HPM_P2
2023/04/06 00:02:05;;;;;;;10.18;7.78;;;2.00;99.90;;;;;;6153576;23;20084;-83
2023/04/06 00:04:30;;;;;;;12.23;8.85;;;2.00;99.90;;;;;;6127395;23;20444;-83
2023/04/06 00:06:56;;;;;;;10.73;8.20;;;2.00;99.90;;;;;;6102823;23;20187;-83
2023/04/06 00:09:25;;;;;;;10.25;8.07;;;2.00;99.90;;;;;;6126960;23;20313;-83
2023/04/06 00:11:50;;;;;;;12.85;9.73;;;2.00;99.90;;;;;;6102918;23;20084;-83
2023/04/06 00:14:17;;;;;;;10.52;8.43;;;1.90;99.90;;;;;;6153094;23;20051;-83
2023/04/06 00:16:42;;;;;;;10.85;8.70;;;1.90;99.90;;;;;;6126853;23;20080;-83
2023/04/06 00:19:08;;;;;;;10.05;8.40;;;1.90;99.90;;;;;;6153334;23;20222;-83
2023/04/06 00:21:34;;;;;;;11.57;8.57;;;1.90;99.90;;;;;;6153598;23;20088;-83
2023/04/06 00:23:59;;;;;;;11.23;8.50;;;1.80;99.90;;;;;;6153082;23;20022;-83
2023/04/06 00:26:25;;;;;;;10.07;7.97;;;1.80;99.90;;;;;;6153800;23;20137;-81
2023/04/06 00:28:52;;;;;;;10.40;8.38;;;1.70;99.90;;;;;;6101838;23;20453;-83
2023/04/06 00:31:20;;;;;;;10.15;8.25;;;1.70;99.90;;;;;;6103248;23;20285;-83
2023/04/06 00:33:47;;;;;;;11.02;8.10;;;1.60;99.90;;;;;;6153739;23;20044;-83
2023/04/06 00:36:13;;;;;;;12.70;8.90;;;1.60;99.90;;;;;;6126997;23;20416;-82
2023/04/06 00:38:39;;;;;;;13.75;8.77;;;1.60;99.90;;;;;;6153928;23;20089;-83
2023/04/06 00:41:05;;;;;;;14.30;9.13;;;1.60;99.90;;;;;;6153060;23;20020;-83
2023/04/06 00:43:34;;;;;;;12.77;9.05;;;1.50;99.90;;;;;;6152745;23;20017;-83
2023/04/06 00:45:59;;;;;;;14.63;9.02;;;1.50;99.90;;;;;;6127277;23;20385;-83
2023/04/06 00:48:25;;;;;;;10.77;8.75;;;1.40;99.90;;;;;;6102710;23;20016;-83
2023/04/06 00:50:53;;;;;;;10.98;8.43;;;1.40;99.90;;;;;;6153263;23;20017;-83
2023/04/06 00:53:19;;;;;;;11.07;9.30;;;1.30;99.90;;;;;;6121969;23;20064;-83
2023/04/06 00:55:44;;;;;;;13.07;9.35;;;1.30;99.90;;;;;;6122432;23;20014;-83
2023/04/06 00:58:10;;;;;;;13.20;9.07;;;1.30;99.90;;;;;;6123241;23;20006;-84
2023/04/06 01:00:38;;;;;;;10.55;9.27;;;1.20;99.90;;;;;;6122037;23;20010;-83
2023/04/06 01:03:06;;;;;;;13.70;9.40;;;1.20;99.90;;;;;;6122472;23;20014;-83
2023/04/06 01:05:39;;;;;;;14.52;9.70;;;1.10;99.90;;;;;;6098686;23;20022;-84
2023/04/06 01:08:09;;;;;;;15.07;8.77;;;1.10;99.90;;;;;;6122454;23;20426;-84
2023/04/06 01:10:35;;;;;;;12.82;9.35;;;1.10;99.90;;;;;;6123016;23;20014;-83
2023/04/06 01:13:00;;;;;;;12.98;9.38;;;1.00;99.90;;;;;;6124002;23;20025;-83
2023/04/06 01:15:28;;;;;;;12.90;9.80;;;1.00;99.90;;;;;;6122128;23;20418;-84
2023/04/06 01:17:53;;;;;;;14.20;10.13;;;1.00;99.90;;;;;;6122420;23;20332;-83
2023/04/06 01:20:19;;;;;;;11.60;10.10;;;2.00;99.90;;;;;;6122326;23;20049;-83
2023/04/06 01:22:45;;;;;;;12.40;9.05;;;1.00;99.90;;;;;;6124147;23;20046;-84
2023/04/06 01:25:10;;;;;;;12.07;9.40;;;1.00;99.90;;;;;;6124443;23;20077;-84
2023/04/06 01:27:39;;;;;;;12.73;9.25;;;0.90;99.90;;;;;;6124723;23;20046;-83
2023/04/06 01:30:05;;;;;;;13.00;10.57;;;0.90;99.90;;;;;;6124247;23;20081;-84
2023/04/06 01:32:34;;;;;;;15.35;9.68;;;0.90;99.90;;;;;;6124187;23;20046;-83
2023/04/06 01:35:00;;;;;;;14.60;10.13;;;0.90;99.90;;;;;;6124200;23;20021;-83
2023/04/06 01:37:25;;;;;;;14.45;10.07;;;0.90;99.90;;;;;;6124555;23;20073;-84
2023/04/06 01:39:54;;;;;;;13.45;10.38;;;1.00;99.90;;;;;;6123506;23;20096;-84
2023/04/06 01:42:20;;;;;;;13.30;9.55;;;0.80;99.90;;;;;;6124107;23;20014;-83
2023/04/06 01:44:45;;;;;;;13.55;9.88;;;0.80;99.90;;;;;;6126019;23;20088;-83
2023/04/06 01:47:11;;;;;;;14.63;10.05;;;0.80;99.90;;;;;;6125268;23;20042;-83
2023/04/06 01:49:39;;;;;;;13.15;9.60;;;1.10;99.90;;;;;;6125866;23;20041;-83
2023/04/06 01:52:05;;;;;;;12.93;9.38;;;0.90;99.90;;;;;;6126399;23;20025;-84
2023/04/06 01:54:34;;;;;;;12.98;10.07;;;0.90;99.90;;;;;;6127611;23;20452;-83
2023/04/06 01:57:00;;;;;;;15.38;10.63;;;0.80;99.90;;;;;;6128570;23;20013;-83
2023/04/06 01:59:25;;;;;;;13.80;10.15;;;0.80;99.90;;;;;;6154851;23;20043;-83
2023/04/06 02:01:54;;;;;;;14.65;10.68;;;0.90;99.90;;;;;;6128399;23;20021;-84
2023/04/06 02:04:21;;;;;;;12.73;9.98;;;0.80;99.90;;;;;;6128635;23;20013;-83
2023/04/06 02:06:49;;;;;;;13.95;10.13;;;0.70;99.90;;;;;;6129485;23;20021;-82
2023/04/06 02:09:18;;;;;;;12.73;9.80;;;0.70;99.90;;;;;;6128005;23;20060;-83
2023/04/06 02:11:43;;;;;;;14.30;10.25;;;0.70;99.90;;;;;;6129267;23;20009;-84
2023/04/06 02:14:09;;;;;;;16.98;10.80;;;0.70;99.90;;;;;;6155584;23;20020;-83
2023/04/06 02:16:34;;;;;;;13.55;10.65;;;1.80;99.90;;;;;;6128420;23;20080;-83
2023/04/06 02:19:00;;;;;;;21.77;11.10;;;0.60;99.90;;;;;;6155110;23;20017;-83
2023/04/06 02:21:26;;;;;;;18.33;10.65;;;0.60;99.90;;;;;;6154562;23;20010;-83
2023/04/06 02:23:54;;;;;;;12.32;10.82;;;0.60;99.90;;;;;;6127781;23;20036;-84
2023/04/06 02:26:20;;;;;;;17.58;11.75;;;0.50;99.90;;;;;;6154680;23;20020;-83
2023/04/06 02:28:46;;;;;;;16.15;11.60;;;1.10;99.90;;;;;;6154371;23;20092;-83
2023/04/06 02:31:11;;;;;;;15.45;11.30;;;0.50;99.90;;;;;;6154556;23;20017;-83
2023/04/06 02:33:37;;;;;;;13.30;11.40;;;0.50;99.90;;;;;;6128508;23;20471;-83
2023/04/06 02:36:03;;;;;;;17.15;11.40;;;0.50;99.90;;;;;;6127848;23;20025;-83
2023/04/06 02:38:29;;;;;;;13.50;11.10;;;0.50;99.90;;;;;;6127287;23;20017;-82
2023/04/06 02:40:55;;;;;;;13.45;10.85;;;0.40;99.90;;;;;;6127829;23;20028;-83
2023/04/06 02:43:20;;;;;;;15.32;11.57;;;0.50;99.90;;;;;;6154406;23;20090;-83
2023/04/06 02:45:46;;;;;;;15.75;11.50;;;0.50;99.90;;;;;;6154835;23;20470;-83
2023/04/06 02:48:11;;;;;;;12.68;10.65;;;0.40;99.90;;;;;;6154503;23;20016;-83
2023/04/06 02:50:37;;;;;;;13.55;11.70;;;0.40;99.90;;;;;;6154929;23;20072;-83
2023/04/06 02:53:05;;;;;;;13.15;11.40;;;0.40;99.90;;;;;;6098999;23;20014;-83
2023/04/06 02:55:31;;;;;;;14.68;11.68;;;0.30;99.90;;;;;;6123866;23;20025;-83
2023/04/06 02:57:56;;;;;;;16.30;11.73;;;0.30;99.90;;;;;;6126640;23;20018;-84
2023/04/06 03:00:22;;;;;;;13.95;10.88;;;0.30;99.90;;;;;;6127224;23;20018;-83
2023/04/06 03:02:48;;;;;;;14.13;11.45;;;0.30;99.90;;;;;;6127886;23;20009;-83
2023/04/06 03:05:14;;;;;;;12.40;10.48;;;0.40;99.90;;;;;;6108224;23;20018;-83
2023/04/06 03:07:39;;;;;;;15.15;11.10;;;0.30;99.90;;;;;;6136605;23;20010;-83
2023/04/06 03:10:06;;;;;;;14.25;11.10;;;0.30;99.90;;;;;;6137591;23;20010;-83
2023/04/06 03:12:31;;;;;;;14.98;11.07;;;0.30;99.90;;;;;;6131424;23;20045;-83
2023/04/06 03:14:57;;;;;;;17.20;11.07;;;0.20;99.90;;;;;;6123668;23;20364;-84
2023/04/06 03:17:22;;;;;;;16.08;11.43;;;0.20;99.90;;;;;;6125587;23;20085;-83
2023/04/06 03:19:48;;;;;;;16.33;12.00;;;0.10;99.90;;;;;;6125460;23;20194;-84
2023/04/06 03:22:14;;;;;;;17.45;11.45;;;0.10;99.90;;;;;;6124455;23;20028;-84
2023/04/06 03:24:39;;;;;;;14.95;11.00;;;0.10;99.90;;;;;;6124411;23;20016;-83
2023/04/06 03:27:06;;;;;;;13.50;11.02;;;0.20;99.90;;;;;;6122681;23;20009;-84
2023/04/06 03:29:35;;;;;;;17.70;11.75;;;0.10;99.90;;;;;;6122722;23;20010;-84
2023/04/06 03:32:01;;;;;;;13.10;11.40;;;0.10;99.90;;;;;;6123166;23;20010;-84
2023/04/06 03:34:26;;;;;;;15.35;12.35;;;0.00;99.90;;;;;;6122610;23;20112;-84
2023/04/06 03:36:52;;;;;;;13.80;10.80;;;0.10;99.90;;;;;;6123691;23;20010;-84
2023/04/06 03:39:18;;;;;;;13.27;11.57;;;0.10;99.90;;;;;;6124760;23;20326;-84
2023/04/06 03:41:44;;;;;;;17.35;11.13;;;0.00;99.90;;;;;;6122575;23;20042;-84
2023/04/06 03:44:10;;;;;;;13.02;10.40;;;0.00;99.90;;;;;;6122660;23;20014;-84
2023/04/06 03:46:38;;;;;;;16.15;11.45;;;0.00;99.90;;;;;;6124588;23;20014;-83
2023/04/06 03:49:03;;;;;;;13.05;10.77;;;0.00;99.90;;;;;;6122538;23;20018;-82
2023/04/06 03:51:29;;;;;;;13.85;11.20;;;0.00;99.90;;;;;;6122066;23;20043;-84
2023/04/06 03:53:54;;;;;;;15.75;11.27;;;0.10;99.90;;;;;;6127179;23;20018;-83
2023/04/06 03:56:20;;;;;;;13.98;11.68;;;0.10;99.90;;;;;;6127370;23;20028;-83
2023/04/06 03:58:49;;;;;;;14.20;10.73;;;0.10;99.90;;;;;;6127543;23;20013;-84
2023/04/06 04:01:14;;;;;;;14.90;11.30;;;0.10;99.90;;;;;;6126994;23;20333;-84
2023/04/06 04:03:40;;;;;;;11.82;10.38;;;0.10;99.90;;;;;;6154112;23;20005;-85
2023/04/06 04:06:06;;;;;;;15.90;11.05;;;0.10;99.90;;;;;;6126586;23;20092;-85
2023/04/06 04:08:35;;;;;;;13.82;10.85;;;0.10;99.90;;;;;;6153320;23;20389;-83
2023/04/06 04:11:01;;;;;;;12.88;10.50;;;0.10;99.90;;;;;;6153404;23;20009;-84
2023/04/06 04:13:26;;;;;;;13.15;11.15;;;0.10;99.90;;;;;;6153519;23;20041;-84
2023/04/06 04:15:52;;;;;;;15.55;10.60;;;0.10;99.90;;;;;;6153478;23;20024;-84
2023/04/06 04:18:18;;;;;;;13.25;11.32;;;0.10;99.90;;;;;;6102234;23;20041;-84
2023/04/06 04:20:44;;;;;;;15.30;11.57;;;0.00;99.90;;;;;;6126529;23;20654;-84
2023/04/06 04:23:10;;;;;;;15.32;10.70;;;0.00;99.90;;;;;;6127722;23;20016;-83
2023/04/06 04:25:36;;;;;;;12.70;10.70;;;0.00;99.90;;;;;;6127196;23;20131;-84
2023/04/06 04:28:04;;;;;;;15.52;11.60;;;0.00;99.90;;;;;;6127990;23;20076;-84
2023/04/06 04:30:30;;;;;;;14.88;11.45;;;0.00;99.90;;;;;;6153974;23;20014;-84
2023/04/06 04:32:56;;;;;;;13.20;11.30;;;0.00;99.90;;;;;;6153640;23;20052;-84
2023/04/06 04:35:24;;;;;;;17.50;12.07;;;-0.10;99.90;;;;;;6152808;23;20013;-84
2023/04/06 04:37:50;;;;;;;13.48;11.40;;;-0.10;99.90;;;;;;6153982;23;20021;-84
2023/04/06 04:40:16;;;;;;;14.43;11.20;;;-0.10;99.90;;;;;;6127181;23;20021;-84
2023/04/06 04:42:46;;;;;;;15.90;11.30;;;-0.10;99.90;;;;;;6127666;23;20013;-85
2023/04/06 04:45:11;;;;;;;12.85;11.15;;;-0.10;99.90;;;;;;6103580;23;20013;-85
2023/04/06 04:47:37;;;;;;;15.35;12.02;;;-0.10;99.90;;;;;;6127610;23;20006;-85
2023/04/06 04:50:03;;;;;;;12.45;11.15;;;-0.10;99.90;;;;;;6152774;23;20475;-84
2023/04/06 04:52:28;;;;;;;14.05;12.10;;;-0.10;99.90;;;;;;6121944;23;20014;-84
2023/04/06 04:54:54;;;;;;;16.92;12.32;;;-0.10;99.90;;;;;;6124418;23;20086;-84
2023/04/06 04:57:20;;;;;;;18.20;11.00;;;-0.10;99.90;;;;;;6122525;23;20012;-85
2023/04/06 04:59:45;;;;;;;14.52;11.70;;;-0.10;99.90;;;;;;6123027;23;20021;-84
2023/04/06 05:02:11;;;;;;;14.65;11.63;;;-0.10;99.90;;;;;;6124589;23;20024;-85
2023/04/06 05:04:40;;;;;;;14.82;12.43;;;-0.10;99.90;;;;;;6124827;23;20009;-82
2023/04/06 05:07:09;;;;;;;15.40;12.32;;;-0.10;99.90;;;;;;6123724;23;20286;-83
2023/04/06 05:09:35;;;;;;;16.80;12.38;;;-0.10;99.90;;;;;;6123986;23;20017;-84
2023/04/06 05:12:01;;;;;;;14.45;11.82;;;-0.10;99.90;;;;;;6125895;23;20006;-84
2023/04/06 05:14:27;;;;;;;16.23;13.07;;;-0.10;99.90;;;;;;6126256;23;20077;-84
2023/04/06 05:16:54;;;;;;;15.05;12.60;;;0.00;99.90;;;;;;6124213;23;20491;-83
2023/04/06 05:19:20;;;;;;;15.90;12.25;;;0.00;99.90;;;;;;6123528;23;20025;-84
2023/04/06 05:21:45;;;;;;;16.73;13.23;;;0.00;99.90;;;;;;6125838;23;20503;-84
2023/04/06 05:24:11;;;;;;;17.95;12.88;;;0.10;99.90;;;;;;6123950;23;20441;-84
2023/04/06 05:26:40;;;;;;;17.65;12.85;;;0.10;99.90;;;;;;6123674;23;20045;-84
2023/04/06 05:29:06;;;;;;;14.88;12.65;;;0.10;99.90;;;;;;6125312;23;20460;-84
2023/04/06 05:31:34;;;;;;;15.25;12.85;;;0.20;99.90;;;;;;6125657;23;20014;-84
2023/04/06 05:34:00;;;;;;;14.23;11.95;;;0.60;99.90;;;;;;6125474;23;20105;-84
2023/04/06 05:36:26;;;;;;;14.32;12.63;;;0.30;99.90;;;;;;6123448;23;20461;-84
2023/04/06 05:38:55;;;;;;;18.33;12.48;;;0.30;99.90;;;;;;6124217;23;20041;-84
2023/04/06 05:41:24;;;;;;;15.43;12.75;;;0.70;99.90;;;;;;6123668;23;20449;-84
2023/04/06 05:43:49;;;;;;;18.00;12.93;;;0.40;99.90;;;;;;6123622;23;20018;-84
2023/04/06 05:46:15;;;;;;;16.52;13.15;;;0.40;99.90;;;;;;6122639;23;20053;-85
2023/04/06 05:48:40;;;;;;;16.30;12.10;;;0.50;99.90;;;;;;6099030;23;20047;-84
2023/04/06 05:51:09;;;;;;;16.05;13.07;;;0.70;99.90;;;;;;6123198;23;20092;-84
2023/04/06 05:53:34;;;;;;;15.40;11.93;;;0.70;99.90;;;;;;6122984;23;20527;-85
2023/04/06 05:56:04;;;;;;;13.65;12.25;;;0.80;99.90;;;;;;6123175;23;20018;-84
2023/04/06 05:58:29;;;;;;;16.00;12.52;;;0.90;99.90;;;;;;6123398;23;20353;-84
2023/04/06 06:00:59;;;;;;;15.35;12.90;;;1.00;99.90;;;;;;6122465;23;20022;-84
2023/04/06 06:03:25;;;;;;;14.48;12.30;;;1.00;99.90;;;;;;6125091;23;20010;-84
2023/04/06 06:05:54;;;;;;;15.65;12.75;;;1.10;99.90;;;;;;6123523;23;20099;-84
2023/04/06 06:08:20;;;;;;;15.77;12.38;;;1.10;99.90;;;;;;6123149;23;20014;-84
2023/04/06 06:10:45;;;;;;;17.17;13.43;;;1.20;99.90;;;;;;6098405;23;20100;-84
2023/04/06 06:13:11;;;;;;;15.32;12.43;;;1.30;99.90;;;;;;6123133;23;20025;-84
2023/04/06 06:15:39;;;;;;;14.63;12.15;;;1.50;99.90;;;;;;6124562;23;20085;-84
2023/04/06 06:18:05;;;;;;;15.50;11.80;;;2.00;99.90;;;;;;6123335;23;20010;-84
2023/04/06 06:20:33;;;;;;;14.73;11.85;;;2.70;99.90;;;;;;6122982;23;20020;-84
2023/04/06 06:22:59;;;;;;;16.05;11.75;;;3.50;99.90;;;;;;6125790;23;20029;-82
2023/04/06 06:25:25;;;;;;;15.70;11.25;;;4.50;99.90;;;;;;6099289;23;20354;-83
2023/04/06 06:27:50;;;;;;;15.38;11.27;;;5.50;99.90;;;;;;6125590;23;20456;-82
2023/04/06 06:30:16;;;;;;;16.05;10.15;;;6.10;99.90;;;;;;6098773;23;20263;-83
2023/04/06 06:32:42;;;;;;;13.38;10.05;;;6.90;99.90;;;;;;6098840;23;20124;-83
2023/04/06 06:35:08;;;;;;;11.18;9.55;;;7.50;99.90;;;;;;6125130;23;20076;-82
2023/04/06 06:37:33;;;;;;;11.60;9.88;;;8.20;99.90;;;;;;6125275;23;20422;-83
2023/04/06 06:39:59;;;;;;;12.52;9.93;;;8.10;99.90;;;;;;6123552;23;20022;-83
2023/04/06 06:42:25;;;;;;;13.18;9.50;;;7.30;99.90;;;;;;6098995;23;20025;-83
2023/04/06 06:44:54;;;;;;;13.98;9.07;;;6.70;99.90;;;;;;6124428;23;20014;-83
2023/04/06 06:47:19;;;;;;;11.57;9.63;;;6.30;99.90;;;;;;6124856;23;20334;-83
2023/04/06 06:49:45;;;;;;;11.98;9.85;;;5.90;99.90;;;;;;6124684;23;20010;-84
2023/04/06 06:52:11;;;;;;;13.10;10.23;;;5.40;99.90;;;;;;6126597;23;20507;-83
2023/04/06 06:54:39;;;;;;;12.43;10.00;;;5.30;99.90;;;;;;6154249;23;20013;-83
2023/04/06 06:57:05;;;;;;;13.60;10.60;;;5.00;99.90;;;;;;6154660;23;20011;-84
2023/04/06 06:59:33;;;;;;;14.05;10.52;;;5.00;99.90;;;;;;6153915;23;20511;-84
2023/04/06 07:01:59;;;;;;;13.50;10.10;;;4.90;99.90;;;;;;6128655;23;20014;-84
2023/04/06 07:04:24;;;;;;;12.82;10.25;;;5.00;99.90;;;;;;6154348;23;20041;-84
2023/04/06 07:06:50;;;;;;;11.38;9.63;;;5.10;99.90;;;;;;6128060;23;20009;-84
2023/04/06 07:09:16;;;;;;;12.48;10.20;;;5.40;99.90;;;;;;6154575;23;20020;-84
2023/04/06 07:11:42;;;;;;;13.70;10.48;;;5.20;99.90;;;;;;6154429;23;20080;-83
2023/04/06 07:14:07;;;;;;;15.10;10.90;;;5.20;99.90;;;;;;6127277;23;20013;-83
2023/04/06 07:16:33;;;;;;;12.30;10.45;;;5.30;99.90;;;;;;6154542;23;20143;-83
2023/04/06 07:18:59;;;;;;;15.02;10.60;;;5.40;99.90;;;;;;6128698;23;20067;-84
2023/04/06 07:21:25;;;;;;;11.60;10.10;;;5.50;99.90;;;;;;6128875;23;20037;-83
2023/04/06 07:23:50;;;;;;;13.80;10.85;;;5.70;99.90;;;;;;6127539;23;20014;-83
2023/04/06 07:26:19;;;;;;;16.23;10.18;;;5.60;99.90;;;;;;6103656;23;20018;-84
2023/04/06 07:28:45;;;;;;;13.15;10.43;;;5.70;99.90;;;;;;6153348;23;20104;-84
2023/04/06 07:31:11;;;;;;;13.55;10.55;;;5.70;99.90;;;;;;6103630;23;20018;-84
2023/04/06 07:33:40;;;;;;;15.63;10.55;;;5.80;99.90;;;;;;6103833;23;20005;-84
2023/04/06 07:36:05;;;;;;;13.32;10.60;;;5.90;99.90;;;;;;6154960;23;20015;-84
2023/04/06 07:38:31;;;;;;;18.38;10.75;;;5.90;99.90;;;;;;6159562;23;20429;-83
2023/04/06 07:40:57;;;;;;;14.77;11.25;;;5.80;99.90;;;;;;6131892;23;20104;-84
2023/04/06 07:43:22;;;;;;;14.32;10.68;;;5.80;99.90;;;;;;6105857;23;20020;-83
2023/04/06 07:45:48;;;;;;;12.00;10.35;;;5.80;99.90;;;;;;6158543;23;20013;-83
2023/04/06 07:48:14;;;;;;;12.80;10.55;;;5.90;99.90;;;;;;6161163;23;20010;-83
2023/04/06 07:50:39;;;;;;;14.35;10.02;;;6.00;99.90;;;;;;6138053;23;20009;-83
2023/04/06 07:53:05;;;;;;;14.52;11.13;;;6.10;99.90;;;;;;6133532;23;20025;-83
2023/04/06 07:55:31;;;;;;;13.50;10.90;;;6.20;99.90;;;;;;6105921;23;20072;-84
2023/04/06 07:57:56;;;;;;;14.88;11.35;;;6.30;99.90;;;;;;6099196;23;20013;-83
2023/04/06 08:00:22;;;;;;;16.42;10.98;;;6.50;99.90;;;;;;6125526;23;20096;-83
2023/04/06 08:02:48;;;;;;;17.08;11.20;;;6.50;99.90;;;;;;6124575;23;20465;-83
2023/04/06 08:05:13;;;;;;;14.80;10.65;;;6.50;99.90;;;;;;6122555;23;20457;-83
2023/04/06 08:07:39;;;;;;;13.23;10.68;;;6.60;99.90;;;;;;6098333;23;20040;-83
2023/04/06 08:10:05;;;;;;;13.88;10.63;;;6.70;99.90;;;;;;6122862;23;20089;-83
2023/04/06 08:12:33;;;;;;;15.07;11.35;;;6.70;99.90;;;;;;6097385;23;20014;-83
2023/04/06 08:14:59;;;;;;;13.38;11.25;;;6.90;99.90;;;;;;6124288;23;20203;-83
2023/04/06 08:17:25;;;;;;;15.07;11.55;;;6.90;99.90;;;;;;6124576;23;20168;-83
2023/04/06 08:19:51;;;;;;;15.98;11.05;;;7.10;99.90;;;;;;6097922;23;20082;-83
2023/04/06 08:22:19;;;;;;;13.60;11.63;;;7.20;99.90;;;;;;6098498;23;20353;-83
2023/04/06 08:24:45;;;;;;;17.30;11.88;;;7.30;99.90;;;;;;6122058;23;20097;-84
2023/04/06 08:27:10;;;;;;;13.10;11.20;;;7.40;99.90;;;;;;6123796;23;20090;-83
2023/04/06 08:29:39;;;;;;;13.70;11.90;;;7.50;99.90;;;;;;6122413;23;20026;-83
2023/04/06 08:32:06;;;;;;;14.70;11.80;;;7.60;99.90;;;;;;6122386;23;20045;-83
2023/04/06 08:34:35;;;;;;;15.18;11.68;;;7.70;99.90;;;;;;6097631;23;20009;-83
2023/04/06 08:37:03;;;;;;;14.48;11.40;;;7.90;99.90;;;;;;6097529;23;20017;-84
2023/04/06 08:39:30;;;;;;;14.57;11.60;;;8.00;99.90;;;;;;6121992;23;20023;-84
2023/04/06 08:41:59;;;;;;;13.18;11.13;;;8.10;99.90;;;;;;6097621;23;20090;-84
2023/04/06 08:44:25;;;;;;;14.13;11.65;;;8.30;99.90;;;;;;6097925;23;20018;-83
2023/04/06 08:46:54;;;;;;;13.18;10.73;;;8.40;99.90;;;;;;6124113;23;20045;-83
2023/04/06 08:49:20;;;;;;;14.38;10.70;;;8.50;99.90;;;;;;6124214;23;20334;-83
2023/04/06 08:51:47;;;;;;;14.75;10.82;;;8.70;99.90;;;;;;6122874;23;20010;-83
2023/04/06 08:54:13;;;;;;;14.63;10.25;;;8.90;99.90;;;;;;6122179;23;20586;-83
2023/04/06 08:56:39;;;;;;;13.60;10.85;;;9.00;99.90;;;;;;6097387;23;20032;-83
2023/04/06 08:59:06;;;;;;;12.93;10.80;;;9.30;99.90;;;;;;6122398;23;20006;-83
2023/04/06 09:01:37;;;;;;;16.15;11.15;;;9.50;99.90;;;;;;6097465;23;20042;-83
2023/04/06 09:04:10;;;;;;;14.93;10.35;;;9.60;99.90;;;;;;6122040;23;20017;-84
2023/04/06 09:06:40;;;;;;;12.45;10.23;;;9.80;99.90;;;;;;6122107;23;20113;-83
2023/04/06 09:09:06;;;;;;;12.20;10.02;;;9.90;99.30;;;;;;6123145;23;20064;-83
2023/04/06 09:12:05;;;;;;;13.38;10.43;;;10.00;99.90;;;;;;6121271;23;20017;-83
2023/04/06 09:14:38;;;;;;;12.50;10.25;;;10.20;99.90;;;;;;6075754;23;20014;-83
2023/04/06 09:17:05;;;;;;;13.48;10.75;;;10.50;99.40;;;;;;6123553;23;20021;-83
2023/04/06 09:19:30;;;;;;;11.63;10.20;;;10.90;99.90;;;;;;6121803;23;20041;-83
2023/04/06 09:22:09;;;;;;;14.88;10.27;;;11.30;97.90;;;;;;6122167;23;20017;-83
2023/04/06 09:24:44;;;;;;;13.60;10.70;;;11.50;95.60;;;;;;6123891;23;20014;-83
2023/04/06 09:27:10;;;;;;;13.40;9.63;;;12.00;94.90;;;;;;6097791;23;20022;-83
2023/04/06 09:29:39;;;;;;;12.82;10.32;;;11.80;95.50;;;;;;6122154;23;20275;-83
2023/04/06 09:32:16;;;;;;;12.57;11.18;;;11.80;96.20;;;;;;6123919;23;20057;-83
2023/04/06 09:34:42;;;;;;;13.88;10.48;;;11.90;95.30;;;;;;6097175;23;20115;-83
2023/04/06 09:37:18;;;;;;;13.82;11.13;;;12.10;96.10;;;;;;6097308;23;20021;-83
2023/04/06 09:39:45;;;;;;;16.08;11.15;;;12.20;95.90;;;;;;6121071;23;20014;-83
2023/04/06 09:42:23;;;;;;;14.07;11.73;;;12.10;96.40;;;;;;6123846;23;20061;-83
2023/04/06 09:44:49;;;;;;;16.40;11.63;;;12.00;94.70;;;;;;6122045;23;20327;-83
2023/04/06 09:47:16;;;;;;;15.82;11.15;;;11.90;96.30;;;;;;6099300;23;20101;-83
2023/04/06 09:49:43;;;;;;;15.07;11.40;;;12.00;97.50;;;;;;6125585;23;20014;-83
2023/04/06 09:52:12;;;;;;;15.27;11.35;;;12.00;96.70;;;;;;6100527;23;20029;-82
2023/04/06 09:54:38;;;;;;;14.02;11.60;;;12.00;96.20;;;;;;6128099;23;20032;-83
2023/04/06 09:57:22;;;;;;;17.15;12.18;;;12.10;96.80;;;;;;6128386;23;20009;-83
2023/04/06 10:00:24;;;;;;;13.65;10.38;;;12.20;95.40;;;;;;6155123;23;20013;-83
2023/04/06 10:03:23;;;;;;;14.05;12.18;;;12.30;96.60;;;;;;6104517;23;20021;-83
2023/04/06 10:05:58;;;;;;;16.65;12.98;;;12.30;95.90;;;;;;6129055;23;20022;-83
2023/04/06 10:08:27;;;;;;;17.58;14.38;;;12.50;96.30;;;;;;6103355;23;20024;-83
2023/04/06 10:10:54;;;;;;;16.23;12.80;;;12.60;94.50;;;;;;6128776;23;20006;-83
2023/04/06 10:13:20;;;;;;;18.88;14.02;;;12.70;95.30;;;;;;6128750;23;20314;-83
2023/04/06 10:15:50;;;;;;;22.02;15.73;;;12.80;95.70;;;;;;6104000;23;20016;-83
2023/04/06 10:18:16;;;;;;;19.52;15.00;;;12.70;94.50;;;;;;6128747;23;20040;-83
2023/04/06 10:20:50;;;;;;;22.92;15.02;;;12.80;92.60;;;;;;6104114;23;20092;-83
2023/04/06 10:23:44;;;;;;;16.05;13.20;;;12.90;94.20;;;;;;6128535;23;20093;-83
2023/04/06 10:26:17;;;;;;;;;;;13.00;93.60;;;;;;6128931;23;20309;-83
2023/04/06 10:28:45;;;;;;;25.63;15.20;;;13.00;94.00;;;;;;6155094;23;20280;-83
2023/04/06 10:31:11;;;;;;;20.15;15.38;;;13.00;93.40;;;;;;6154660;23;20338;-83
2023/04/06 10:33:41;;;;;;;19.83;15.88;;;13.20;93.10;;;;;;6103745;23;20045;-83
2023/04/06 10:36:11;;;;;;;21.00;15.73;;;13.20;92.60;;;;;;6127553;23;20009;-83
2023/04/06 10:38:41;;;;;;;22.42;16.58;;;13.40;93.10;;;;;;6103478;23;20025;-83
2023/04/06 10:41:09;;;;;;;20.27;16.40;;;13.50;92.60;;;;;;6154351;23;20006;-83
2023/04/06 10:43:40;;;;;;;21.05;17.17;;;13.50;92.40;;;;;;6128051;23;20017;-83
2023/04/06 10:46:09;;;;;;;20.42;17.23;;;13.50;91.70;;;;;;6128155;23;20087;-83
2023/04/06 10:48:47;;;;;;;23.70;17.75;;;13.40;92.20;;;;;;6153832;23;20365;-83
2023/04/06 10:51:15;;;;;;;23.90;19.10;;;13.50;92.00;;;;;;6128007;23;20057;-83
2023/04/06 10:53:43;;;;;;;26.15;17.73;;;13.50;91.30;;;;;;6123517;23;20009;-83
2023/04/06 10:56:11;;;;;;;23.30;18.67;;;13.70;92.60;;;;;;6123158;23;20026;-82
2023/04/06 10:58:48;;;;;;;22.48;17.10;;;13.70;93.40;;;;;;6123394;23;20010;-82
2023/04/06 11:01:17;;;;;;;24.35;18.90;;;13.90;92.90;;;;;;6125691;23;20088;-82
2023/04/06 11:03:44;;;;;;;26.60;19.35;;;14.00;91.50;;;;;;6123915;23;20010;-83
2023/04/06 11:06:10;;;;;;;21.75;18.02;;;14.10;91.90;;;;;;6122686;23;20724;-83
2023/04/06 11:08:37;;;;;;;25.55;19.95;;;14.20;91.30;;;;;;6124892;23;20018;-83
2023/04/06 11:11:15;;;;;;;28.50;22.50;;;14.30;91.50;;;;;;6125452;23;20033;-83
2023/04/06 11:13:56;;;;;;;23.83;19.45;;;14.40;90.20;;;;;;6124105;23;20021;-83
2023/04/06 11:16:30;;;;;;;23.05;20.20;;;14.60;91.60;;;;;;6125955;23;20010;-83
2023/04/06 11:19:04;;;;;;;26.80;20.70;;;14.70;90.80;;;;;;6123784;23;20013;-82
2023/04/06 11:21:47;;;;;;;26.13;18.67;;;14.70;89.40;;;;;;6123121;23;20018;-84
2023/04/06 11:24:33;;;;;;;23.50;19.85;;;14.80;91.30;;;;;;6123613;23;20014;-83
2023/04/06 11:27:00;;;;;;;24.13;20.25;;;14.70;91.30;;;;;;6124518;23;20013;-83
2023/04/06 11:29:29;;;;;;;22.60;18.33;;;14.70;91.90;;;;;;6125540;23;20006;-83
2023/04/06 11:32:03;;;;;;;28.23;20.90;;;14.70;91.80;;;;;;6123620;23;20089;-83
2023/04/06 11:34:32;;;;;;;25.38;20.00;;;14.80;91.00;;;;;;6123795;23;20014;-83
2023/04/06 11:37:01;;;;;;;24.95;19.65;;;14.70;90.70;;;;;;6125786;23;20033;-83
2023/04/06 11:39:29;;;;;;;26.25;19.90;;;14.60;90.90;;;;;;6103078;23;20018;-83
2023/04/06 11:42:04;;;;;;;25.52;20.52;;;14.70;91.60;;;;;;6127701;23;20018;-84
2023/04/06 11:44:38;;;;;;;24.73;20.98;;;14.80;93.20;;;;;;6134205;23;20018;-83
2023/04/06 11:47:05;;;;;;;32.67;23.15;;;14.80;91.60;;;;;;6134841;23;20029;-83
2023/04/06 11:49:32;;;;;;;28.45;22.75;;;14.90;91.30;;;;;;6135191;23;20013;-83
2023/04/06 11:51:59;;;;;;;29.40;21.08;;;14.90;90.30;;;;;;6131853;23;20014;-82
2023/04/06 11:54:30;;;;;;;27.95;22.23;;;14.90;91.10;;;;;;6154780;23;20052;-83
2023/04/06 11:56:56;;;;;;;28.08;22.08;;;15.00;90.00;;;;;;6128616;23;20096;-83
2023/04/06 11:59:25;;;;;;;30.27;23.00;;;14.80;90.70;;;;;;6154894;23;20025;-83
2023/04/06 12:01:51;;;;;;;30.27;22.65;;;14.70;89.40;;;;;;6128035;23;20441;-84
2023/04/06 12:04:17;;;;;;;29.50;24.13;;;14.70;90.40;;;;;;6127856;23;20089;-83
2023/04/06 12:06:43;;;;;;;32.50;22.48;;;14.80;89.70;;;;;;6128143;23;20013;-83
2023/04/06 12:09:08;;;;;;;25.98;21.42;;;14.80;91.20;;;;;;6128190;23;20059;-83
2023/04/06 12:11:34;;;;;;;24.25;20.17;;;14.80;90.60;;;;;;6128353;23;20068;-83
2023/04/06 12:14:01;;;;;;;25.98;20.67;;;14.50;90.30;;;;;;6154889;23;20458;-83
2023/04/06 12:16:27;;;;;;;26.00;19.75;;;14.30;90.40;;;;;;6128375;23;20006;-83
2023/04/06 12:18:52;;;;;;;23.83;20.65;;;14.40;90.10;;;;;;6127474;23;20048;-83
2023/04/06 12:21:18;;;;;;;27.55;21.25;;;14.50;90.70;;;;;;6128168;23;20017;-82
2023/04/06 12:23:44;;;;;;;25.92;20.30;;;14.40;91.40;;;;;;6127837;23;20101;-83
2023/04/06 12:26:10;;;;;;;26.15;22.80;;;14.50;91.10;;;;;;6103213;23;20087;-83
2023/04/06 12:28:36;;;;;;;28.65;21.13;;;14.50;90.40;;;;;;6127534;23;20021;-83
2023/04/06 12:31:01;;;;;;;24.38;20.08;;;14.40;89.90;;;;;;6103174;23;20041;-83
2023/04/06 12:33:27;;;;;;;27.77;22.50;;;14.40;90.30;;;;;;6102587;23;20060;-83
2023/04/06 12:35:52;;;;;;;29.90;23.90;;;14.40;89.40;;;;;;6154137;23;20010;-83
2023/04/06 12:38:18;;;;;;;58.42;31.75;;;14.40;91.50;;;;;;6127219;23;20017;-83